createdAt,value
2018-12-07T00:02:57.208Z,11.87
2018-12-07T00:07:03.376Z,11.87
2018-12-07T00:11:10.504Z,11.97
2018-12-07T00:15:16.602Z,11.94
2018-12-07T00:19:22.635Z,12.00
2018-12-07T00:23:28.759Z,12.00
2018-12-07T00:27:34.741Z,11.98
2018-12-07T00:31:40.976Z,11.95
2018-12-07T00:35:47.361Z,11.98
2018-12-07T00:39:53.991Z,12.02
2018-12-07T00:44:01.649Z,12.10
2018-12-07T00:48:07.633Z,12.13
2018-12-07T00:52:13.771Z,12.16
2018-12-07T00:56:20.967Z,12.14
2018-12-07T01:00:26.836Z,12.13
2018-12-07T01:04:32.927Z,12.14
2018-12-07T01:08:38.882Z,12.14
2018-12-07T01:12:45.105Z,12.14
2018-12-07T01:16:51.134Z,12.16
2018-12-07T01:20:57.440Z,12.13
2018-12-07T01:25:03.455Z,12.15
2018-12-07T01:29:09.470Z,12.08
2018-12-07T01:33:15.685Z,12.07
2018-12-07T01:37:26.550Z,12.05
2018-12-07T01:41:32.797Z,12.10
2018-12-07T01:45:38.930Z,12.12
2018-12-07T01:49:45.007Z,12.10
2018-12-07T01:53:50.997Z,12.11
2018-12-07T01:57:57.196Z,12.12
2018-12-07T02:02:03.265Z,12.12
2018-12-07T02:06:09.280Z,12.13
2018-12-07T02:10:15.241Z,12.18
2018-12-07T02:14:21.418Z,12.17
2018-12-07T02:18:27.211Z,12.13
2018-12-07T02:22:33.608Z,12.13
2018-12-07T02:26:39.643Z,12.13
2018-12-07T02:30:45.732Z,12.12
2018-12-07T02:34:51.393Z,12.14
2018-12-07T02:38:57.520Z,12.19
2018-12-07T02:43:03.659Z,12.14
2018-12-07T02:47:09.580Z,12.17
2018-12-07T02:51:16.080Z,12.22
2018-12-07T02:55:23.112Z,12.19
2018-12-07T02:59:29.211Z,12.16
2018-12-07T03:03:35.157Z,12.22
2018-12-07T03:07:41.357Z,12.21
2018-12-07T03:11:47.319Z,12.27
2018-12-07T03:15:53.304Z,12.23
2018-12-07T03:20:05.862Z,12.23
2018-12-07T03:24:11.777Z,12.26
2018-12-07T03:28:17.991Z,12.30
2018-12-07T03:32:23.924Z,12.31
2018-12-07T03:36:30.929Z,12.31
2018-12-07T03:40:37.212Z,12.27
2018-12-07T03:44:43.062Z,12.26
2018-12-07T03:48:49.855Z,12.27
2018-12-07T03:52:55.832Z,12.29
2018-12-07T03:57:02.069Z,12.34
2018-12-07T04:01:07.945Z,12.32
2018-12-07T04:05:14.072Z,12.36
2018-12-07T04:09:19.971Z,12.32
2018-12-07T04:13:26.939Z,12.29
2018-12-07T04:17:33.231Z,12.31
2018-12-07T04:21:39.364Z,12.33
2018-12-07T04:25:45.229Z,12.33
2018-12-07T04:30:36.490Z,12.29
2018-12-07T04:34:42.638Z,12.26
2018-12-07T04:38:48.663Z,12.23
2018-12-07T04:42:55.008Z,12.22
2018-12-07T04:47:01.411Z,12.16
2018-12-07T04:51:10.811Z,12.17
2018-12-07T04:55:17.105Z,12.13
2018-12-07T04:59:23.262Z,12.06
2018-12-07T05:03:29.139Z,12.01
2018-12-07T05:07:35.145Z,11.96
2018-12-07T05:11:41.164Z,11.92
2018-12-07T05:15:47.431Z,11.87
2018-12-07T05:19:53.667Z,11.79
2018-12-07T05:23:59.982Z,11.72
2018-12-07T05:28:06.976Z,11.68
2018-12-07T05:32:13.322Z,11.69
2018-12-07T05:36:20.414Z,11.66
2018-12-07T05:40:26.429Z,11.65
2018-12-07T05:44:33.043Z,11.64
2018-12-07T05:48:39.221Z,11.67
2018-12-07T05:52:45.300Z,11.68
2018-12-07T05:56:51.393Z,11.72
2018-12-07T06:00:57.493Z,11.67
2018-12-07T06:05:03.443Z,11.71
2018-12-07T06:09:09.576Z,11.54
2018-12-07T06:13:15.466Z,11.60
2018-12-07T06:17:21.467Z,11.62
2018-12-07T06:21:27.584Z,11.60
2018-12-07T06:25:33.918Z,11.59
2018-12-07T06:29:40.560Z,11.58
2018-12-07T06:33:46.683Z,11.61
2018-12-07T06:37:54.366Z,11.63
2018-12-07T06:42:00.627Z,11.63
2018-12-07T06:46:07.422Z,11.61
2018-12-07T06:50:14.549Z,11.64
2018-12-07T06:54:21.624Z,11.61
2018-12-07T06:58:27.714Z,11.64
2018-12-07T07:02:33.717Z,11.62
2018-12-07T07:06:39.466Z,11.63
2018-12-07T07:10:45.669Z,11.60
2018-12-07T07:14:52.277Z,11.57
2018-12-07T07:18:58.775Z,11.54
2018-12-07T07:23:04.893Z,11.48
2018-12-07T07:27:10.943Z,11.35
2018-12-07T07:31:16.944Z,11.29
2018-12-07T07:35:23.165Z,11.16
2018-12-07T07:39:28.949Z,11.15
2018-12-07T07:43:35.021Z,11.10
2018-12-07T07:47:40.690Z,11.07
2018-12-07T07:51:47.064Z,11.03
2018-12-07T07:55:53.215Z,11.05
2018-12-07T08:00:00.242Z,11.01
2018-12-07T08:04:06.138Z,10.98
2018-12-07T08:08:11.934Z,10.99
2018-12-07T08:12:18.345Z,10.96
2018-12-07T08:16:24.109Z,10.92
2018-12-07T08:20:29.890Z,10.97
2018-12-07T08:24:37.626Z,11.01
2018-12-07T08:28:43.401Z,10.96
2018-12-07T08:32:49.122Z,11.06
2018-12-07T08:36:54.833Z,11.08
2018-12-07T08:41:00.818Z,11.06
2018-12-07T08:45:12.363Z,11.11
2018-12-07T08:49:34.646Z,11.09
2018-12-07T08:53:43.164Z,11.11
2018-12-07T08:57:49.093Z,11.09
2018-12-07T09:01:54.895Z,11.13
2018-12-07T09:06:00.560Z,11.20
2018-12-07T09:10:07.081Z,11.24
2018-12-07T09:14:13.865Z,11.32
2018-12-07T09:18:20.935Z,11.31
2018-12-07T09:22:28.300Z,11.37
2018-12-07T09:26:34.760Z,11.39
2018-12-07T09:30:44.044Z,11.43
2018-12-07T09:34:53.459Z,11.49
2018-12-07T09:39:01.884Z,11.55
2018-12-07T09:43:10.172Z,11.52
2018-12-07T09:47:23.852Z,11.54
2018-12-07T09:51:32.904Z,11.58
2018-12-07T09:55:48.312Z,11.62
2018-12-07T10:00:00.373Z,11.45
2018-12-07T10:04:07.779Z,11.41
2018-12-07T10:08:15.685Z,11.38
2018-12-07T10:12:25.871Z,11.34
2018-12-07T10:16:32.321Z,11.35
2018-12-07T10:20:40.146Z,11.41
2018-12-07T10:24:54.532Z,11.51
2018-12-07T10:29:02.286Z,11.53
2018-12-07T10:33:09.738Z,11.59
2018-12-07T10:37:18.455Z,11.65
2018-12-07T10:41:26.052Z,11.69
2018-12-07T10:45:33.967Z,11.73
2018-12-07T10:49:43.018Z,11.77
2018-12-07T10:53:49.054Z,11.74
2018-12-07T10:57:54.913Z,11.71
2018-12-07T11:02:08.314Z,11.77
2018-12-07T11:06:20.320Z,11.71
2018-12-07T11:10:33.929Z,11.68
2018-12-07T11:14:47.464Z,11.67
2018-12-07T11:19:01.089Z,11.71
2018-12-07T11:23:31.521Z,11.73
2018-12-07T11:27:47.398Z,11.70
2018-12-07T11:31:58.935Z,11.65
2018-12-07T11:36:08.261Z,11.65
2018-12-07T11:40:20.439Z,11.65
2018-12-07T11:44:29.000Z,11.66
2018-12-07T11:48:35.887Z,11.60
2018-12-07T11:52:42.300Z,11.58
2018-12-07T11:56:48.620Z,11.59
2018-12-07T12:00:56.805Z,11.62
2018-12-07T12:05:02.592Z,11.65
2018-12-07T12:09:10.939Z,11.60
2018-12-07T12:13:18.810Z,11.59
2018-12-07T12:17:27.719Z,11.64
2018-12-07T12:21:36.552Z,11.64
2018-12-07T12:25:42.263Z,11.61
2018-12-07T12:29:48.875Z,11.61
2018-12-07T12:33:55.144Z,11.57
2018-12-07T12:38:00.873Z,11.42
2018-12-07T12:42:09.598Z,11.27
2018-12-07T12:46:15.526Z,11.08
2018-12-07T12:50:29.066Z,11.03
2018-12-07T12:54:38.724Z,11.06
2018-12-07T12:58:44.681Z,11.05
2018-12-07T13:02:50.422Z,11.02
2018-12-07T13:06:56.500Z,11.07
2018-12-07T13:11:02.247Z,11.06
2018-12-07T13:15:08.253Z,11.05
2018-12-07T13:19:14.592Z,11.00
2018-12-07T13:23:27.659Z,10.98
2018-12-07T13:27:35.688Z,10.92
2018-12-07T13:31:48.374Z,10.89
2018-12-07T13:35:56.453Z,10.89
2018-12-07T13:40:05.054Z,10.87
2018-12-07T13:44:11.337Z,10.89
2018-12-07T13:48:17.148Z,10.86
2018-12-07T13:52:24.496Z,10.89
2018-12-07T13:56:30.607Z,10.91
2018-12-07T14:00:38.534Z,10.97
2018-12-07T14:04:46.021Z,10.98
2018-12-07T14:08:54.234Z,10.99
2018-12-07T14:13:00.621Z,11.00
2018-12-07T14:17:10.793Z,11.06
2018-12-07T14:21:18.730Z,11.06
2018-12-07T14:25:25.615Z,11.08
2018-12-07T14:29:33.605Z,11.05
2018-12-07T14:33:39.923Z,11.16
2018-12-07T14:37:47.752Z,11.16
2018-12-07T14:41:54.020Z,11.17
2018-12-07T14:46:03.165Z,11.17
2018-12-07T14:50:12.120Z,11.14
2018-12-07T14:54:21.839Z,11.18
2018-12-07T14:58:34.659Z,11.10
2018-12-07T15:02:42.908Z,11.10
2018-12-07T15:06:50.695Z,11.13
2018-12-07T15:11:00.635Z,11.17
2018-12-07T15:15:07.958Z,11.20
2018-12-07T15:19:15.748Z,11.08
2018-12-07T15:23:24.780Z,10.94
2018-12-07T15:27:34.123Z,10.83
2018-12-07T15:31:42.777Z,10.67
2018-12-07T15:35:50.940Z,10.56
2018-12-07T15:39:59.241Z,10.49
2018-12-07T15:44:08.947Z,10.49
2018-12-07T15:48:18.722Z,10.54
2018-12-07T15:52:32.990Z,10.53
2018-12-07T15:56:46.809Z,10.57
2018-12-07T16:00:56.966Z,10.61
2018-12-07T16:05:03.165Z,10.54
2018-12-07T16:09:10.416Z,10.49
2018-12-07T16:13:16.574Z,10.53
2018-12-07T16:17:22.461Z,10.49
2018-12-07T16:21:32.640Z,10.51
2018-12-07T16:25:38.980Z,10.53
2018-12-07T16:29:46.913Z,10.53
2018-12-07T16:33:53.583Z,10.59
2018-12-07T16:38:09.885Z,10.67
2018-12-07T16:42:18.000Z,10.73
2018-12-07T16:46:27.313Z,10.75
2018-12-07T16:50:37.184Z,10.76
2018-12-07T16:54:45.410Z,10.77
2018-12-07T16:58:53.051Z,10.72
2018-12-07T17:03:00.558Z,10.67
2018-12-07T17:07:13.146Z,10.59
2018-12-07T17:11:20.693Z,10.53
2018-12-07T17:15:41.219Z,10.52
2018-12-07T17:19:51.917Z,10.47
2018-12-07T17:24:00.258Z,10.46
2018-12-07T17:28:06.647Z,10.36
2018-12-07T17:32:22.562Z,10.29
2018-12-07T17:36:35.053Z,10.25
2018-12-07T17:40:42.521Z,10.17
2018-12-07T17:44:49.464Z,10.11
2018-12-07T17:48:56.038Z,10.01
2018-12-07T17:53:02.959Z,9.96
2018-12-07T17:57:10.179Z,9.94
2018-12-07T18:01:16.028Z,9.99
2018-12-07T18:05:22.435Z,9.91
2018-12-07T18:09:29.909Z,9.95
2018-12-07T18:13:36.930Z,9.93
2018-12-07T18:17:45.309Z,9.83
2018-12-07T18:21:52.014Z,9.76
2018-12-07T18:26:03.749Z,9.73
2018-12-07T18:30:10.881Z,9.72
2018-12-07T18:34:17.922Z,9.70
2018-12-07T18:38:23.871Z,9.72
2018-12-07T18:42:30.506Z,9.65
2018-12-07T18:46:37.205Z,9.73
2018-12-07T18:50:44.136Z,9.78
2018-12-07T18:54:51.675Z,9.80
2018-12-07T19:03:38.548Z,9.85
2018-12-07T19:08:00.597Z,9.85
2018-12-07T19:12:25.180Z,9.91
2018-12-07T19:16:50.342Z,10.00
2018-12-07T19:20:56.289Z,10.02
2018-12-07T19:25:02.345Z,10.08
2018-12-07T19:29:08.922Z,10.15
2018-12-07T19:33:16.221Z,10.24
2018-12-07T19:37:23.699Z,10.32
2018-12-07T19:41:30.496Z,10.38
2018-12-07T19:45:37.722Z,10.41
2018-12-07T19:49:44.633Z,10.51
2018-12-07T19:53:50.912Z,10.44
2018-12-07T19:57:57.260Z,10.47
2018-12-07T20:02:03.336Z,10.45
2018-12-07T20:06:09.581Z,10.47
2018-12-07T20:10:16.102Z,10.45
2018-12-07T20:14:25.050Z,10.45
2018-12-07T20:18:34.649Z,10.37
2018-12-07T20:22:42.204Z,10.18
2018-12-07T20:26:50.850Z,10.04
2018-12-07T20:30:58.169Z,9.93
2018-12-07T20:35:05.573Z,9.83
2018-12-07T20:39:11.964Z,9.72
2018-12-07T20:43:19.767Z,9.68
2018-12-07T20:47:26.994Z,9.58
2018-12-07T20:51:33.134Z,9.57
2018-12-07T20:55:40.543Z,9.46
2018-12-07T20:59:48.011Z,9.47
2018-12-07T21:04:21.922Z,9.42
2018-12-07T21:09:01.140Z,9.35
2018-12-07T21:14:06.052Z,9.38
2018-12-07T21:18:11.920Z,9.42
2018-12-07T21:22:18.316Z,9.28
2018-12-07T21:26:25.358Z,9.39
2018-12-07T21:30:56.420Z,9.25
2018-12-07T21:35:10.374Z,9.24
2018-12-07T21:39:37.024Z,9.15
2018-12-07T21:43:47.147Z,9.12
2018-12-07T21:48:22.328Z,9.05
2018-12-07T21:52:32.397Z,9.06
2018-12-07T21:56:38.764Z,8.94
2018-12-07T22:00:46.764Z,8.83
2018-12-07T22:04:53.029Z,8.73
2018-12-07T22:08:59.341Z,8.52
2018-12-07T22:13:05.678Z,8.45
2018-12-07T22:17:11.863Z,8.27
2018-12-07T22:21:18.931Z,8.15
2018-12-07T22:25:25.385Z,8.08
2018-12-07T22:29:32.204Z,7.99
2018-12-07T22:33:39.443Z,7.99
2018-12-07T22:37:45.440Z,7.99
2018-12-07T22:41:53.130Z,7.94
2018-12-07T22:45:59.353Z,7.90
2018-12-07T22:50:06.504Z,7.83
2018-12-07T22:54:13.161Z,7.78
2018-12-07T22:58:19.194Z,7.76
2018-12-07T23:02:25.257Z,7.70
2018-12-07T23:06:30.960Z,7.70
2018-12-07T23:10:36.981Z,7.71
2018-12-07T23:14:46.634Z,7.65
2018-12-07T23:18:55.637Z,7.69
2018-12-07T23:23:01.788Z,7.69
2018-12-07T23:27:07.673Z,7.78
2018-12-07T23:31:14.309Z,7.84
2018-12-07T23:35:20.154Z,7.84
2018-12-07T23:39:26.946Z,7.95
2018-12-07T23:43:32.854Z,7.81
2018-12-07T23:47:38.825Z,7.75
2018-12-07T23:51:46.769Z,7.80
2018-12-07T23:55:53.589Z,7.76
2018-12-07T23:59:59.672Z,7.73
